createdAt,value
2017-03-07T13:25:36.336Z,31.8
2017-03-07T13:26:35.292Z,32.8
2017-03-07T13:42:37.814Z,58.6
2017-03-07T13:45:10.272Z,60.6
2017-03-07T13:47:42.755Z,63.7
2017-03-07T13:50:15.220Z,66.1
2017-03-07T13:52:47.691Z,67
2017-03-07T13:55:20.185Z,69
2017-03-07T13:57:52.664Z,69.2
2017-03-07T14:00:25.555Z,70
2017-03-07T14:02:58.041Z,71
2017-03-07T14:05:30.595Z,72.3
2017-03-07T14:08:03.098Z,72.9
2017-03-07T14:10:35.641Z,71.3
2017-03-07T14:13:08.176Z,71.5
2017-03-07T14:15:40.710Z,71.8
2017-03-07T14:18:13.215Z,71.6
2017-03-07T14:20:45.928Z,72.2
2017-03-07T14:23:18.524Z,72.7
2017-03-07T14:25:51.454Z,73
2017-03-07T14:28:23.950Z,73.7
2017-03-07T14:30:57.085Z,74.1
2017-03-07T14:33:30.329Z,74.2
2017-03-07T14:36:03.296Z,74.4
2017-03-07T14:38:36.165Z,73.9
2017-03-07T14:41:09.283Z,74
2017-03-07T14:43:42.378Z,74.3
2017-03-07T14:46:15.267Z,74.6
2017-03-07T14:48:48.285Z,75.2
2017-03-07T14:51:21.672Z,75.5
2017-03-07T14:53:55.957Z,75.7
2017-03-07T14:56:29.378Z,76.1
2017-03-07T14:59:03.207Z,76.2
2017-03-07T15:01:37.412Z,76.9
2017-03-07T15:04:12.024Z,75.7
2017-03-07T15:06:45.817Z,75.9
2017-03-07T15:09:19.199Z,76.1
2017-03-07T15:11:52.641Z,76.8
2017-03-07T15:14:25.946Z,76.8
2017-03-07T15:16:59.688Z,77.6
2017-03-07T15:19:34.208Z,77
2017-03-07T15:22:06.858Z,77
2017-03-07T15:24:39.327Z,77.2
2017-03-07T15:27:11.818Z,77.5
2017-03-07T15:29:44.293Z,77.3
2017-03-07T15:32:17.182Z,77.4
2017-03-07T15:34:50.097Z,77.3
2017-03-07T15:37:22.587Z,77.2
2017-03-07T15:39:55.035Z,77.9
2017-03-07T15:42:28.360Z,77.8
2017-03-07T15:45:00.920Z,78.3
2017-03-07T15:47:33.393Z,78.5
2017-03-07T15:50:05.872Z,78.8
2017-03-07T15:52:38.349Z,79.1
2017-03-07T15:55:10.828Z,80.4
2017-03-07T15:57:43.315Z,80.4
2017-03-07T16:00:15.757Z,80.6
2017-03-07T16:02:48.652Z,80.8
2017-03-07T16:05:21.126Z,81.2
2017-03-07T16:07:53.662Z,81.6
2017-03-07T16:10:26.135Z,81.5
2017-03-07T16:12:58.572Z,82.2
2017-03-07T16:15:31.029Z,82.7
2017-03-07T16:18:03.917Z,82.8
2017-03-07T16:20:36.448Z,83.7
2017-03-07T16:23:10.290Z,83.7
2017-03-07T16:25:43.375Z,83.8
2017-03-07T16:28:23.056Z,84.3
2017-03-07T16:30:58.426Z,84.5
2017-03-07T16:33:32.381Z,84.5
2017-03-07T16:36:05.739Z,84.3
2017-03-07T16:38:39.475Z,84.5
2017-03-07T16:41:12.867Z,85.2
2017-03-07T16:43:47.104Z,84.7
2017-03-07T16:46:22.092Z,84.3
2017-03-07T16:48:55.190Z,84.4
2017-03-07T16:51:28.436Z,84.6
2017-03-07T16:54:01.391Z,84.5
2017-03-07T16:56:34.542Z,84.7
2017-03-07T16:59:07.496Z,85.7
2017-03-07T17:01:40.579Z,86
2017-03-07T17:04:13.181Z,85.9
2017-03-07T17:06:46.804Z,86
2017-03-07T17:09:20.175Z,86.5
2017-03-07T17:11:53.583Z,87.8
2017-03-07T17:14:26.477Z,87.4
2017-03-07T17:16:59.323Z,88.2
2017-03-07T17:19:32.462Z,88.2
2017-03-07T17:22:05.589Z,88.3
2017-03-07T17:24:38.964Z,88.2
2017-03-07T17:27:12.309Z,88.4
2017-03-07T17:29:44.983Z,88.5
2017-03-07T17:32:18.029Z,89
2017-03-07T17:34:50.756Z,88.2
2017-03-07T17:37:23.870Z,88.4
2017-03-07T17:39:56.708Z,88.3
2017-03-07T17:42:30.032Z,88.4
2017-03-07T17:45:03.232Z,88.4
2017-03-07T17:47:36.859Z,88.1
2017-03-07T17:50:09.446Z,88.4
2017-03-07T17:52:42.818Z,88.4
2017-03-07T17:55:15.287Z,88.1
2017-03-07T17:57:48.196Z,88.4
2017-03-07T18:00:20.956Z,88.2
2017-03-07T18:02:54.185Z,88.1
2017-03-07T18:05:27.615Z,88.4
2017-03-07T18:08:01.220Z,88.3
2017-03-07T18:10:34.713Z,88.1
2017-03-07T18:13:07.315Z,88
2017-03-07T18:15:40.259Z,87.6
2017-03-07T18:18:12.980Z,88
2017-03-07T18:20:45.870Z,87.6
2017-03-07T18:23:18.318Z,88.2
2017-03-07T18:25:50.808Z,87.7
2017-03-07T18:28:23.282Z,87.4
2017-03-07T18:30:56.142Z,87.2
2017-03-07T18:33:28.620Z,87.4
2017-03-07T18:36:01.238Z,87.6
2017-03-07T18:38:33.713Z,88.4
2017-03-07T18:41:06.242Z,87.8
2017-03-07T18:43:38.853Z,87.8
2017-03-07T18:46:11.319Z,87.3
2017-03-07T18:48:43.779Z,87.4
2017-03-07T18:51:16.457Z,87.4
2017-03-07T18:53:48.942Z,88.6
2017-03-07T18:56:21.941Z,88
2017-03-07T18:58:54.417Z,88.1
2017-03-07T19:01:26.859Z,88.6
2017-03-07T19:03:59.294Z,88.4
2017-03-07T19:06:31.773Z,88
2017-03-07T19:09:04.668Z,88.3
2017-03-07T19:11:37.141Z,87.8
2017-03-07T19:14:09.602Z,88.1
2017-03-07T19:16:42.082Z,88.3
2017-03-07T19:19:15.031Z,88.5
2017-03-07T19:21:47.483Z,88.1
2017-03-07T19:24:20.017Z,88.5
2017-03-07T19:26:52.916Z,88.9
2017-03-07T19:29:25.384Z,88.7
2017-03-07T19:31:58.264Z,89.1
2017-03-07T19:34:30.733Z,88.8
2017-03-07T19:37:03.198Z,88.7
2017-03-07T19:39:35.716Z,89.3
2017-03-07T19:42:08.190Z,90.1
2017-03-07T19:44:40.662Z,89.3
2017-03-07T19:47:13.157Z,89.6
2017-03-07T19:49:45.650Z,89.2
2017-03-07T19:52:18.097Z,89.3
2017-03-07T19:54:51.289Z,89.8
2017-03-07T19:57:23.808Z,89.5
2017-03-07T19:59:56.269Z,89.6
2017-03-07T20:02:28.749Z,89.5
2017-03-07T20:05:01.737Z,89.9
2017-03-07T20:07:34.626Z,90
2017-03-07T20:10:07.109Z,89.8
2017-03-07T20:12:39.562Z,90.1
2017-03-07T20:15:12.014Z,89.8
2017-03-07T20:17:44.913Z,90.2
2017-03-07T20:20:17.394Z,89.5
2017-03-07T20:22:51.137Z,89.8
2017-03-07T20:25:24.000Z,89.6
2017-03-07T20:27:56.942Z,89.8
2017-03-07T20:30:30.531Z,90
2017-03-07T20:33:03.092Z,90.3
2017-03-07T20:35:35.589Z,91
2017-03-07T20:38:08.481Z,91.4
2017-03-07T20:40:40.964Z,91.9
2017-03-07T20:43:13.435Z,91.9
2017-03-07T20:45:45.907Z,91.3
2017-03-07T20:48:18.368Z,91.7
2017-03-07T20:50:51.160Z,91.3
2017-03-07T20:53:23.640Z,91.9
2017-03-07T20:55:56.947Z,92
2017-03-07T20:58:29.528Z,91.5
2017-03-07T21:01:02.598Z,91.7
2017-03-07T21:03:35.148Z,92.1
2017-03-07T21:06:08.047Z,92.6
2017-03-07T21:08:40.515Z,92.3
2017-03-07T21:11:13.322Z,91.9
2017-03-07T21:13:46.225Z,92
2017-03-07T21:16:18.782Z,91.9
2017-03-07T21:18:51.242Z,91.3
2017-03-07T21:21:23.760Z,91.5
2017-03-07T21:23:56.653Z,91.5
2017-03-07T21:26:29.104Z,93
2017-03-07T21:29:02.004Z,92
2017-03-07T21:31:34.474Z,91.8
2017-03-07T21:34:06.991Z,90.9
2017-03-07T21:36:39.492Z,90.3
2017-03-07T21:39:12.900Z,91.7
2017-03-07T21:41:45.389Z,92.1
2017-03-07T21:44:17.842Z,91.4
2017-03-07T21:46:50.325Z,92.3
2017-03-07T21:49:22.793Z,92.5
2017-03-07T21:51:56.230Z,92.6
2017-03-07T21:54:28.747Z,93.1
2017-03-07T21:57:01.212Z,91.8
2017-03-07T21:59:33.854Z,91
2017-03-07T22:02:06.327Z,90.9
2017-03-07T22:04:38.793Z,91.2
2017-03-07T22:07:11.243Z,92
2017-03-07T22:09:44.152Z,91.6
2017-03-07T22:12:16.642Z,91.6
2017-03-07T22:14:49.136Z,91.9
2017-03-07T22:17:21.993Z,91.9
2017-03-07T22:19:54.480Z,92.7
2017-03-07T22:22:26.970Z,92.9
2017-03-07T22:24:59.442Z,92.7
2017-03-07T22:27:31.919Z,92.1
2017-03-07T22:30:04.387Z,92.5
2017-03-07T22:32:36.840Z,92.4
2017-03-07T22:35:09.332Z,93.1
2017-03-07T22:37:41.831Z,93.4
2017-03-07T22:40:14.287Z,94
2017-03-07T22:42:47.163Z,94
2017-03-07T22:45:19.645Z,93.4
2017-03-07T22:47:52.105Z,93
2017-03-07T22:50:25.002Z,93.5
2017-03-07T22:52:57.474Z,93
2017-03-07T22:55:29.979Z,93.2
2017-03-07T22:58:02.433Z,93.2
2017-03-07T23:00:35.315Z,94
2017-03-07T23:03:07.792Z,94.2
2017-03-07T23:05:40.686Z,93.8
2017-03-07T23:08:13.577Z,93.6
2017-03-07T23:10:46.051Z,93.5
2017-03-07T23:13:18.531Z,93.2
2017-03-07T23:15:51.397Z,93.8
2017-03-07T23:18:23.857Z,93.9
2017-03-07T23:20:56.323Z,94.2
2017-03-07T23:23:28.794Z,94.5
2017-03-07T23:26:01.278Z,94.2
2017-03-07T23:28:33.731Z,93.6
2017-03-07T23:31:06.196Z,94
2017-03-07T23:33:38.684Z,95
2017-03-07T23:36:11.601Z,95.1
2017-03-07T23:38:44.940Z,94.9
2017-03-07T23:41:17.468Z,94.3
2017-03-07T23:43:49.936Z,94.1
2017-03-07T23:46:22.425Z,93.7
2017-03-07T23:48:55.326Z,94.1
2017-03-07T23:51:28.636Z,94.4
2017-03-07T23:54:01.528Z,94.9
2017-03-07T23:56:34.485Z,94.7
2017-03-07T23:59:07.367Z,94.6
